createdAt,value
2018-08-11T00:04:32.263Z,3.63
2018-08-11T00:09:35.388Z,3.70
2018-08-11T00:14:38.537Z,4.97
2018-08-11T00:19:41.635Z,4.73
2018-08-11T00:24:44.764Z,4.87
2018-08-11T00:29:47.870Z,4.50
2018-08-11T00:34:50.983Z,4.20
2018-08-11T00:39:54.112Z,5.07
2018-08-11T00:44:57.228Z,5.23
2018-08-11T00:50:00.344Z,4.10
2018-08-11T00:55:03.791Z,4.00
2018-08-11T01:00:10.731Z,5.13
2018-08-11T01:05:15.871Z,5.17
2018-08-11T01:10:19.256Z,6.40
2018-08-11T01:15:23.023Z,5.33
2018-08-11T01:20:26.167Z,5.30
2018-08-11T01:25:29.288Z,5.03
2018-08-11T01:30:32.413Z,4.20
2018-08-11T01:35:35.519Z,4.00
2018-08-11T01:40:38.611Z,3.37
2018-08-11T01:45:41.699Z,3.90
2018-08-11T01:50:44.807Z,4.13
2018-08-11T01:55:47.912Z,3.60
2018-08-11T02:00:51.037Z,4.20
2018-08-11T02:05:54.122Z,5.00
2018-08-11T02:10:57.193Z,4.43
2018-08-11T02:16:00.271Z,4.30
2018-08-11T02:21:03.386Z,3.77
2018-08-11T02:26:06.531Z,3.03
2018-08-11T02:31:09.632Z,3.20
2018-08-11T02:36:12.750Z,3.20
2018-08-11T02:41:15.840Z,2.90
2018-08-11T02:46:18.952Z,3.13
2018-08-11T02:51:22.051Z,3.20
2018-08-11T02:56:25.147Z,2.87
2018-08-11T03:01:34.992Z,3.07
2018-08-11T03:06:38.072Z,2.27
2018-08-11T03:11:41.176Z,2.30
2018-08-11T03:16:50.916Z,2.73
2018-08-11T03:21:54.016Z,2.77
2018-08-11T03:26:57.103Z,2.93
2018-08-11T03:32:00.238Z,2.30
2018-08-11T03:37:03.370Z,2.57
2018-08-11T03:42:06.447Z,2.40
2018-08-11T03:47:09.692Z,2.50
2018-08-11T03:52:12.900Z,2.57
2018-08-11T03:57:15.991Z,2.10
2018-08-11T04:02:19.100Z,1.83
2018-08-11T04:07:22.216Z,2.57
2018-08-11T04:12:25.313Z,1.83
2018-08-11T04:17:33.285Z,2.07
2018-08-11T04:22:36.496Z,2.00
2018-08-11T04:27:39.690Z,2.10
2018-08-11T04:32:42.770Z,1.90
2018-08-11T04:37:45.975Z,1.87
2018-08-11T04:42:49.083Z,2.10
2018-08-11T04:47:52.188Z,2.20
2018-08-11T04:52:55.294Z,1.70
2018-08-11T04:57:58.411Z,1.83
2018-08-11T05:03:01.514Z,2.07
2018-08-11T05:08:04.716Z,1.90
2018-08-11T05:13:07.814Z,2.27
2018-08-11T05:18:10.899Z,2.17
2018-08-11T05:23:14.107Z,2.10
2018-08-11T05:28:17.230Z,2.20
2018-08-11T05:33:21.133Z,2.50
2018-08-11T05:38:23.948Z,2.00
2018-08-11T05:43:27.051Z,2.20
2018-08-11T05:48:30.153Z,1.93
2018-08-11T05:53:33.286Z,1.80
2018-08-11T05:58:36.466Z,1.43
2018-08-11T06:03:39.575Z,1.40
2018-08-11T06:08:42.776Z,1.50
2018-08-11T06:13:45.895Z,1.00
2018-08-11T06:18:48.999Z,1.50
2018-08-11T06:23:52.089Z,1.00
2018-08-11T06:28:55.179Z,1.13
2018-08-11T06:33:58.281Z,1.40
2018-08-11T06:39:01.401Z,1.20
2018-08-11T06:44:04.528Z,1.00
2018-08-11T06:49:07.851Z,1.30
2018-08-11T06:54:11.133Z,1.00
2018-08-11T06:59:14.239Z,1.00
2018-08-11T07:04:17.339Z,1.00
2018-08-11T07:09:20.451Z,1.00
2018-08-11T07:14:23.543Z,0.97
2018-08-11T07:19:27.355Z,1.10
2018-08-11T07:24:30.431Z,1.10
2018-08-11T07:29:33.570Z,1.10
2018-08-11T07:34:36.683Z,1.20
2018-08-11T07:39:39.793Z,1.07
2018-08-11T07:44:42.899Z,1.10
2018-08-11T07:49:45.994Z,0.97
2018-08-11T07:54:49.097Z,1.50
2018-08-11T07:59:52.217Z,1.53
2018-08-11T08:04:55.331Z,1.00
2018-08-11T08:09:58.464Z,1.03
2018-08-11T08:15:01.561Z,1.00
2018-08-11T08:20:05.092Z,0.90
2018-08-11T08:25:08.214Z,1.23
2018-08-11T08:30:12.335Z,1.70
2018-08-11T08:35:15.456Z,1.70
2018-08-11T08:40:18.552Z,1.90
2018-08-11T08:45:21.685Z,1.70
2018-08-11T08:50:24.778Z,1.67
2018-08-11T08:55:27.943Z,1.00
2018-08-11T09:00:31.155Z,1.90
2018-08-11T09:05:34.335Z,2.20
2018-08-11T09:10:37.460Z,2.00
2018-08-11T09:15:40.584Z,1.80
2018-08-11T09:20:43.815Z,1.67
2018-08-11T09:25:46.895Z,1.87
2018-08-11T09:30:50.069Z,1.80
2018-08-11T09:35:53.181Z,1.53
2018-08-11T09:40:56.284Z,1.10
2018-08-11T09:45:59.426Z,1.63
2018-08-11T09:51:02.460Z,2.00
2018-08-11T09:56:05.563Z,1.67
2018-08-11T10:01:14.274Z,1.90
2018-08-11T10:06:17.451Z,1.50
2018-08-11T10:11:20.530Z,1.63
2018-08-11T10:16:23.623Z,1.47
2018-08-11T10:21:26.720Z,1.60
2018-08-11T10:26:29.835Z,1.10
2018-08-11T10:31:32.944Z,1.70
2018-08-11T10:36:36.040Z,1.20
2018-08-11T10:41:39.559Z,1.20
2018-08-11T10:46:42.659Z,1.70
2018-08-11T10:51:45.771Z,1.83
2018-08-11T10:56:48.864Z,0.97
2018-08-11T11:01:51.962Z,1.70
2018-08-11T11:06:55.045Z,1.20
2018-08-11T11:11:58.143Z,1.30
2018-08-11T11:17:01.241Z,1.20
2018-08-11T11:22:04.355Z,1.10
2018-08-11T11:27:07.487Z,1.00
2018-08-11T11:32:10.576Z,1.20
2018-08-11T11:37:13.709Z,1.33
2018-08-11T11:42:16.798Z,1.03
2018-08-11T11:47:19.918Z,1.10
2018-08-11T11:52:23.027Z,0.97
2018-08-11T11:57:26.124Z,1.10
2018-08-11T12:02:29.227Z,1.33
2018-08-11T12:07:32.347Z,1.00
2018-08-11T12:12:35.522Z,0.87
2018-08-11T12:17:38.628Z,1.20
2018-08-11T12:22:41.740Z,1.33
2018-08-11T12:27:44.827Z,1.00
2018-08-11T12:32:47.928Z,1.33
2018-08-11T12:37:51.102Z,1.10
2018-08-11T12:42:54.145Z,1.10
2018-08-11T12:47:57.244Z,1.20
2018-08-11T12:53:00.342Z,1.33
2018-08-11T12:58:03.447Z,0.90
2018-08-11T13:03:06.565Z,2.53
2018-08-11T13:08:09.667Z,0.87
2018-08-11T13:13:12.779Z,0.77
2018-08-11T13:18:15.902Z,1.00
2018-08-11T13:23:19.296Z,0.70
2018-08-11T13:28:22.383Z,0.87
2018-08-11T13:33:25.471Z,0.97
2018-08-11T13:38:28.590Z,0.73
2018-08-11T13:43:31.675Z,0.80
2018-08-11T13:48:34.863Z,0.90
2018-08-11T13:53:37.985Z,1.07
2018-08-11T13:58:41.088Z,0.93
2018-08-11T14:03:44.206Z,0.80
2018-08-11T14:08:47.420Z,0.60
2018-08-11T14:13:50.568Z,0.60
2018-08-11T14:18:53.978Z,0.77
2018-08-11T14:23:57.149Z,1.10
2018-08-11T14:29:00.271Z,0.63
2018-08-11T14:34:03.376Z,0.70
2018-08-11T14:39:08.138Z,0.80
2018-08-11T14:44:11.267Z,0.60
2018-08-11T14:49:14.351Z,0.80
2018-08-11T14:54:17.519Z,0.63
2018-08-11T14:59:20.613Z,0.57
2018-08-11T15:04:23.730Z,0.80
2018-08-11T15:09:26.851Z,0.70
2018-08-11T15:14:29.963Z,0.67
2018-08-11T15:19:33.084Z,0.60
2018-08-11T15:24:36.171Z,0.60
2018-08-11T15:29:39.303Z,0.70
2018-08-11T15:34:42.412Z,0.80
2018-08-11T15:39:45.512Z,0.63
2018-08-11T15:44:48.610Z,0.83
2018-08-11T15:49:51.739Z,0.67
2018-08-11T15:54:54.944Z,0.80
2018-08-11T15:59:58.140Z,0.70
2018-08-11T16:05:01.343Z,0.77
2018-08-11T16:10:04.964Z,0.80
2018-08-11T16:15:08.155Z,0.93
2018-08-11T16:20:11.389Z,1.00
2018-08-11T16:25:14.555Z,0.80
2018-08-11T16:30:17.668Z,0.70
2018-08-11T16:35:20.787Z,0.60
2018-08-11T16:40:24.001Z,0.73
2018-08-11T16:45:27.101Z,0.70
2018-08-11T16:50:30.324Z,0.80
2018-08-11T16:55:33.542Z,0.87
2018-08-11T17:00:36.738Z,0.70
2018-08-11T17:05:39.850Z,0.90
2018-08-11T17:10:42.909Z,0.90
2018-08-11T17:15:46.071Z,0.77
2018-08-11T17:20:49.200Z,1.10
2018-08-11T17:25:52.376Z,0.80
2018-08-11T17:30:55.601Z,0.80
2018-08-11T17:35:58.707Z,0.80
2018-08-11T17:41:01.819Z,0.90
2018-08-11T17:46:05.005Z,0.70
2018-08-11T17:51:08.131Z,0.90
2018-08-11T17:56:11.236Z,0.73
2018-08-11T18:01:14.413Z,0.80
2018-08-11T18:06:17.528Z,0.90
2018-08-11T18:11:20.734Z,0.60
2018-08-11T18:16:23.859Z,0.80
2018-08-11T18:21:27.018Z,0.80
2018-08-11T18:26:30.167Z,1.07
2018-08-11T18:31:33.347Z,0.80
2018-08-11T18:36:36.621Z,0.80
2018-08-11T18:41:39.792Z,1.00
2018-08-11T18:46:42.879Z,0.77
2018-08-11T18:51:45.972Z,0.80
2018-08-11T18:56:49.087Z,0.70
2018-08-11T19:01:53.168Z,0.77
2018-08-11T19:06:56.262Z,1.67
2018-08-11T19:11:59.383Z,0.80
2018-08-11T19:17:02.492Z,1.00
2018-08-11T19:22:05.594Z,0.70
2018-08-11T19:27:08.788Z,0.90
2018-08-11T19:32:11.895Z,0.80
2018-08-11T19:37:14.983Z,0.80
2018-08-11T19:42:18.083Z,0.90
2018-08-11T19:47:21.204Z,1.00
2018-08-11T19:52:24.313Z,0.77
2018-08-11T19:57:27.515Z,0.70
2018-08-11T20:02:30.764Z,0.87
2018-08-11T20:07:34.155Z,0.80
2018-08-11T20:12:37.931Z,0.80
2018-08-11T20:17:41.003Z,0.70
2018-08-11T20:22:44.120Z,0.73
2018-08-11T20:27:47.225Z,0.80
2018-08-11T20:32:50.402Z,0.97
2018-08-11T20:37:53.512Z,1.10
2018-08-11T20:42:56.676Z,0.80
2018-08-11T20:47:59.788Z,0.80
2018-08-11T20:53:02.876Z,0.83
2018-08-11T20:58:06.019Z,1.07
2018-08-11T21:03:09.639Z,1.00
2018-08-11T21:08:12.859Z,0.90
2018-08-11T21:13:15.984Z,0.90
2018-08-11T21:18:19.066Z,0.73
2018-08-11T21:23:22.312Z,0.83
2018-08-11T21:28:25.392Z,0.70
2018-08-11T21:33:28.604Z,0.70
2018-08-11T21:38:31.715Z,0.80
2018-08-11T21:43:34.832Z,0.73
2018-08-11T21:48:38.000Z,0.70
2018-08-11T21:53:41.103Z,1.10
2018-08-11T21:58:44.228Z,1.00
2018-08-11T22:03:47.439Z,0.90
2018-08-11T22:08:50.578Z,0.80
2018-08-11T22:13:53.756Z,0.93
2018-08-11T22:18:56.871Z,1.00
2018-08-11T22:24:00.020Z,1.13
2018-08-11T22:29:03.129Z,1.03
2018-08-11T22:34:06.543Z,0.87
2018-08-11T22:39:10.760Z,1.03
2018-08-11T22:44:13.887Z,1.87
2018-08-11T22:49:16.991Z,0.90
2018-08-11T22:54:20.071Z,1.20
2018-08-11T22:59:23.175Z,1.30
2018-08-11T23:04:26.264Z,1.07
2018-08-11T23:09:29.559Z,1.40
2018-08-11T23:14:32.680Z,1.27
2018-08-11T23:19:35.784Z,1.50
2018-08-11T23:24:38.875Z,1.50
2018-08-11T23:29:41.996Z,1.10
2018-08-11T23:34:45.111Z,1.33
2018-08-11T23:39:48.199Z,1.20
2018-08-11T23:44:51.478Z,1.43
2018-08-11T23:49:54.782Z,1.20
2018-08-11T23:54:57.920Z,1.23
